Time;durP1;ratioP1;P1;durP2;ratioP2;P2;SDS_P1;SDS_P2;PMS_P1;PMS_P2;Temp;Humidity;BMP_temperature;BMP_pressure;BME280_temperature;BME280_humidity;BME280_pressure;Samples;Min_cycle;Max_cycle;Signal;HPM_P1;HPM_P2
2021/08/10 00:00:40;;;;;;;5.45;3.13;;;15.50;99.90;;;;;;5093075;28;20440;-68
2021/08/10 00:03:06;;;;;;;7.32;3.80;;;15.50;99.90;;;;;;5095969;28;20034;-68
2021/08/10 00:05:32;;;;;;;5.45;3.28;;;15.50;99.90;;;;;;5093277;28;20135;-68
2021/08/10 00:07:58;;;;;;;7.25;4.05;;;15.50;99.90;;;;;;5098044;28;20378;-68
2021/08/10 00:10:23;;;;;;;9.57;4.05;;;15.50;99.90;;;;;;5092635;28;20050;-68
2021/08/10 00:12:50;;;;;;;9.15;4.03;;;15.40;99.90;;;;;;5092494;28;20039;-68
2021/08/10 00:15:15;;;;;;;5.28;4.18;;;15.50;99.90;;;;;;5096061;28;20120;-68
2021/08/10 00:17:41;;;;;;;7.18;3.70;;;15.40;99.90;;;;;;5096246;28;20044;-68
2021/08/10 00:20:08;;;;;;;7.07;3.90;;;15.50;99.90;;;;;;5090747;28;20596;-68
2021/08/10 00:22:34;;;;;;;7.72;3.97;;;15.50;99.90;;;;;;5096218;27;20047;-68
2021/08/10 00:24:59;;;;;;;8.02;4.35;;;15.50;99.90;;;;;;5096849;28;20501;-68
2021/08/10 00:27:25;;;;;;;9.60;4.50;;;15.40;99.90;;;;;;5096056;28;20055;-68
2021/08/10 00:29:51;;;;;;;7.38;4.55;;;15.40;99.90;;;;;;5099607;27;20564;-67
2021/08/10 00:32:17;;;;;;;6.70;5.20;;;15.40;99.90;;;;;;5095731;28;20039;-68
2021/08/10 00:34:43;;;;;;;6.93;5.47;;;15.40;99.90;;;;;;5097094;28;20036;-68
2021/08/10 00:37:09;;;;;;;8.05;4.53;;;15.40;99.90;;;;;;5093017;28;20486;-68
2021/08/10 00:39:35;;;;;;;6.18;4.95;;;15.40;99.90;;;;;;5094139;27;20035;-68
2021/08/10 00:42:02;;;;;;;8.13;4.68;;;15.40;99.90;;;;;;5097320;28;20040;-67
2021/08/10 00:44:28;;;;;;;7.78;4.95;;;15.40;99.90;;;;;;5096187;28;20061;-68
2021/08/10 00:46:54;;;;;;;9.77;5.65;;;15.40;99.90;;;;;;5095204;28;20040;-68
2021/08/10 00:49:20;;;;;;;14.30;7.10;;;15.40;99.90;;;;;;5095351;28;20097;-68
2021/08/10 00:51:50;;;;;;;6.50;4.70;;;15.40;99.90;;;;;;5094449;27;20036;-68
2021/08/10 00:54:16;;;;;;;8.13;5.28;;;15.40;99.90;;;;;;5097300;28;20496;-68
2021/08/10 00:56:42;;;;;;;10.10;6.45;;;15.30;99.90;;;;;;5097380;28;20044;-68
2021/08/10 00:59:07;;;;;;;6.78;5.30;;;15.40;99.90;;;;;;5095731;28;20036;-68
2021/08/10 01:01:33;;;;;;;8.57;5.93;;;15.30;99.90;;;;;;5095440;28;20107;-68
2021/08/10 01:03:59;;;;;;;10.48;5.15;;;15.30;99.90;;;;;;5094879;28;20470;-67
2021/08/10 01:06:41;;;;;;;7.25;5.55;;;15.30;99.90;;;;;;5093333;28;20118;-68
2021/08/10 01:09:10;;;;;;;7.93;5.03;;;15.30;99.90;;;;;;5095895;28;20055;-68
2021/08/10 01:12:20;;;;;;;6.63;5.15;;;15.30;99.90;;;;;;5094797;27;20125;-68
2021/08/10 01:14:57;;;;;;;7.53;5.45;;;15.30;99.90;;;;;;5085720;28;20047;-68
2021/08/10 01:17:27;;;;;;;6.90;5.47;;;15.30;99.90;;;;;;5094039;28;20147;-68
2021/08/10 01:20:11;;;;;;;8.35;6.32;;;15.30;99.90;;;;;;5096171;28;20035;-68
2021/08/10 01:22:40;;;;;;;7.82;5.70;;;15.20;99.90;;;;;;5094917;28;20040;-68
2021/08/10 01:25:24;;;;;;;8.70;5.75;;;15.30;99.90;;;;;;5095442;28;20039;-68
2021/08/10 01:28:06;;;;;;;7.03;5.90;;;15.20;99.90;;;;;;5095637;28;20036;-68
2021/08/10 01:30:41;;;;;;;8.65;5.55;;;15.30;99.90;;;;;;5097103;28;20039;-68
2021/08/10 01:33:07;;;;;;;8.55;5.47;;;15.30;99.90;;;;;;5093676;28;20161;-68
2021/08/10 01:35:35;;;;;;;9.73;6.38;;;15.30;99.90;;;;;;5092889;28;20043;-68
2021/08/10 01:38:02;;;;;;;8.60;5.90;;;15.30;99.90;;;;;;5093165;28;20048;-68
2021/08/10 01:40:31;;;;;;;8.82;5.72;;;15.20;99.90;;;;;;5097961;28;20035;-68
2021/08/10 01:43:02;;;;;;;8.68;5.57;;;15.20;99.90;;;;;;5093732;28;20508;-68
2021/08/10 01:45:29;;;;;;;8.55;5.20;;;15.20;99.90;;;;;;5093346;28;20039;-68
2021/08/10 01:47:55;;;;;;;10.85;5.15;;;15.20;99.90;;;;;;5096787;28;20043;-68
2021/08/10 01:50:23;;;;;;;8.65;5.80;;;15.20;99.90;;;;;;5096359;28;20356;-68
2021/08/10 01:52:49;;;;;;;10.43;5.40;;;15.20;99.90;;;;;;5094735;28;20036;-68
2021/08/10 01:55:19;;;;;;;6.50;5.60;;;15.20;99.90;;;;;;5096644;28;20116;-67
2021/08/10 01:57:45;;;;;;;10.07;5.95;;;15.20;99.90;;;;;;5095517;28;20035;-68
2021/08/10 02:00:12;;;;;;;8.18;5.70;;;15.20;99.90;;;;;;5094406;28;20050;-68
2021/08/10 02:02:38;;;;;;;12.32;6.10;;;15.20;99.90;;;;;;5098099;27;20497;-68
2021/08/10 02:05:04;;;;;;;6.95;5.10;;;15.20;99.90;;;;;;5099212;28;20031;-68
2021/08/10 02:07:31;;;;;;;8.05;4.95;;;15.20;99.90;;;;;;5097319;28;20663;-68
2021/08/10 02:09:59;;;;;;;6.90;4.50;;;15.20;99.90;;;;;;5099456;28;20085;-68
2021/08/10 02:12:25;;;;;;;8.43;5.25;;;15.20;99.90;;;;;;5098319;28;20036;-68
2021/08/10 02:14:52;;;;;;;6.35;5.47;;;15.20;99.90;;;;;;5098336;28;20036;-68
2021/08/10 02:17:18;;;;;;;7.82;4.97;;;15.20;99.90;;;;;;5098185;27;20036;-68
2021/08/10 02:19:44;;;;;;;9.32;5.50;;;15.10;99.90;;;;;;5099654;27;20036;-68
2021/08/10 02:22:12;;;;;;;11.30;5.03;;;15.20;99.90;;;;;;5099187;28;20157;-68
2021/08/10 02:24:53;;;;;;;12.57;4.95;;;15.10;99.90;;;;;;5099628;27;20492;-68
2021/08/10 02:27:50;;;;;;;8.10;4.80;;;15.10;99.90;;;;;;5102601;28;20112;-68
2021/08/10 02:30:20;;;;;;;7.82;4.60;;;15.10;99.90;;;;;;5101741;27;20055;-68
2021/08/10 02:32:47;;;;;;;7.45;4.47;;;15.10;99.90;;;;;;5108939;28;20040;-68
2021/08/10 02:35:18;;;;;;;6.88;5.28;;;15.10;99.90;;;;;;5109979;28;20048;-68
2021/08/10 02:37:46;;;;;;;9.27;5.28;;;15.10;99.90;;;;;;5100706;27;20051;-68
2021/08/10 02:40:15;;;;;;;6.15;4.75;;;15.10;99.90;;;;;;5102335;28;20474;-68
2021/08/10 02:42:43;;;;;;;10.80;4.45;;;15.10;99.90;;;;;;5101760;28;20040;-68
2021/08/10 02:45:09;;;;;;;12.73;5.03;;;15.10;99.90;;;;;;5105736;28;20130;-68
2021/08/10 02:47:35;;;;;;;7.03;5.28;;;15.00;99.90;;;;;;5109640;28;20043;-68
2021/08/10 02:50:02;;;;;;;9.60;5.47;;;15.00;99.90;;;;;;5107364;28;20036;-68
2021/08/10 02:52:28;;;;;;;6.28;4.28;;;15.00;99.90;;;;;;5102829;28;20077;-68
2021/08/10 02:54:54;;;;;;;6.80;4.38;;;15.00;99.90;;;;;;5100714;28;20044;-68
2021/08/10 02:58:03;;;;;;;8.02;5.05;;;15.00;99.90;;;;;;5105178;28;20035;-68
2021/08/10 03:00:33;;;;;;;8.32;5.47;;;15.00;99.90;;;;;;5086072;28;20070;-68
2021/08/10 03:03:07;;;;;;;11.68;5.30;;;15.00;99.90;;;;;;5104945;28;20039;-68
2021/08/10 03:05:34;;;;;;;7.40;5.03;;;15.00;99.90;;;;;;5105450;28;20064;-68
2021/08/10 03:08:01;;;;;;;8.98;6.35;;;15.00;99.90;;;;;;5105545;27;20533;-68
2021/08/10 03:10:33;;;;;;;7.35;5.35;;;14.90;99.90;;;;;;5105832;28;20044;-68
2021/08/10 03:13:03;;;;;;;10.07;5.40;;;14.90;99.90;;;;;;5104392;28;20149;-67
2021/08/10 03:15:32;;;;;;;6.75;5.25;;;14.90;99.90;;;;;;5104022;28;20036;-68
2021/08/10 03:18:03;;;;;;;13.18;6.15;;;15.00;99.90;;;;;;5108881;28;20039;-68
2021/08/10 03:20:31;;;;;;;7.40;5.20;;;15.00;99.90;;;;;;5108873;28;20051;-68
2021/08/10 03:22:59;;;;;;;10.95;5.88;;;15.00;99.90;;;;;;5103375;27;20036;-67
2021/08/10 03:25:26;;;;;;;8.88;5.75;;;15.00;99.90;;;;;;5101558;28;20039;-67
2021/08/10 03:27:53;;;;;;;12.70;5.72;;;14.90;99.90;;;;;;5109089;28;20028;-68
2021/08/10 03:30:19;;;;;;;15.15;5.85;;;14.90;99.90;;;;;;5100484;28;20101;-68
2021/08/10 03:32:46;;;;;;;6.88;6.05;;;15.00;99.90;;;;;;5109556;28;20512;-68
2021/08/10 03:35:12;;;;;;;8.57;5.82;;;15.00;99.90;;;;;;5103956;27;20044;-68
2021/08/10 03:37:39;;;;;;;10.75;5.80;;;15.00;99.90;;;;;;5106895;27;20036;-68
2021/08/10 03:40:06;;;;;;;7.38;6.03;;;15.00;99.90;;;;;;5101646;28;20066;-68
2021/08/10 03:42:34;;;;;;;11.57;6.10;;;15.00;99.90;;;;;;5102467;28;20042;-68
2021/08/10 03:44:59;;;;;;;6.78;5.47;;;15.00;99.90;;;;;;5106196;28;20039;-68
2021/08/10 03:47:26;;;;;;;9.50;5.57;;;15.00;99.90;;;;;;5104923;28;20040;-68
2021/08/10 03:49:54;;;;;;;10.20;5.65;;;15.00;99.90;;;;;;5104546;27;20064;-68
2021/08/10 03:52:20;;;;;;;15.60;5.97;;;15.00;99.90;;;;;;5103511;27;20501;-68
2021/08/10 03:54:47;;;;;;;9.10;5.07;;;15.00;99.90;;;;;;5100645;28;20039;-68
2021/08/10 03:57:18;;;;;;;13.07;6.25;;;15.00;99.90;;;;;;5102920;28;20044;-68
2021/08/10 03:59:47;;;;;;;14.30;5.50;;;15.00;99.90;;;;;;5102326;28;20040;-68
2021/08/10 04:02:15;;;;;;;9.75;5.80;;;15.00;99.90;;;;;;5103561;27;20050;-68
2021/08/10 04:04:42;;;;;;;10.73;5.80;;;15.00;99.90;;;;;;5106390;27;20062;-68
2021/08/10 04:07:08;;;;;;;7.18;5.00;;;15.10;99.90;;;;;;5105598;28;20490;-68
2021/08/10 04:09:37;;;;;;;11.13;5.05;;;15.10;99.90;;;;;;5103753;28;20040;-67
2021/08/10 04:12:08;;;;;;;11.45;5.85;;;15.10;99.90;;;;;;5102287;27;20039;-67
2021/08/10 04:14:34;;;;;;;6.30;4.75;;;15.20;99.90;;;;;;5103599;28;20040;-67
2021/08/10 04:17:03;;;;;;;10.48;5.47;;;15.10;99.90;;;;;;5107041;28;20471;-67
2021/08/10 04:19:30;;;;;;;10.05;5.70;;;15.10;99.90;;;;;;5107122;28;20062;-67
2021/08/10 04:21:57;;;;;;;15.02;5.65;;;15.20;99.90;;;;;;5103302;28;20036;-67
2021/08/10 04:24:22;;;;;;;11.88;5.97;;;15.20;99.90;;;;;;5103404;28;20044;-67
2021/08/10 04:26:49;;;;;;;12.00;6.53;;;15.20;99.90;;;;;;5104313;28;20539;-67
2021/08/10 04:29:14;;;;;;;11.27;5.88;;;15.10;99.90;;;;;;5101165;28;20039;-67
2021/08/10 04:31:41;;;;;;;10.50;5.65;;;15.10;99.90;;;;;;5104576;28;20054;-67
2021/08/10 04:34:08;;;;;;;10.77;5.95;;;15.10;99.90;;;;;;5101800;28;20063;-67
2021/08/10 04:36:34;;;;;;;13.15;5.95;;;15.10;99.90;;;;;;5102065;28;20028;-67
2021/08/10 04:39:00;;;;;;;10.57;6.63;;;15.10;99.90;;;;;;5100520;28;20051;-67
2021/08/10 04:41:28;;;;;;;15.05;7.68;;;15.10;99.90;;;;;;5103823;28;20410;-67
2021/08/10 04:43:54;;;;;;;14.95;7.32;;;15.10;99.90;;;;;;5105751;28;20046;-67
2021/08/10 04:46:22;;;;;;;13.77;7.20;;;15.10;99.90;;;;;;5101874;28;20600;-67
2021/08/10 04:48:47;;;;;;;12.45;8.05;;;15.10;99.90;;;;;;5101417;28;20681;-67
2021/08/10 04:51:13;;;;;;;12.13;7.07;;;15.10;99.90;;;;;;5103509;28;20053;-67
2021/08/10 04:53:39;;;;;;;8.82;6.75;;;15.10;99.90;;;;;;5106946;28;20038;-67
2021/08/10 04:56:06;;;;;;;11.73;6.88;;;15.10;99.90;;;;;;5097624;27;20090;-67
2021/08/10 04:58:32;;;;;;;11.25;7.65;;;15.10;99.90;;;;;;5099334;27;20036;-67
2021/08/10 05:00:58;;;;;;;9.40;7.28;;;15.10;99.90;;;;;;5102230;28;20038;-67
2021/08/10 05:03:24;;;;;;;12.32;8.32;;;15.10;99.90;;;;;;5105745;28;20127;-67
2021/08/10 05:05:50;;;;;;;13.20;7.60;;;15.10;99.90;;;;;;5100122;28;20143;-68
2021/08/10 05:08:16;;;;;;;10.18;7.28;;;15.10;99.90;;;;;;5100845;28;20044;-67
2021/08/10 05:10:43;;;;;;;12.88;7.13;;;15.10;99.90;;;;;;5101182;27;20040;-67
2021/08/10 05:13:09;;;;;;;13.05;7.95;;;15.10;99.90;;;;;;5095791;28;20028;-67
2021/08/10 05:15:38;;;;;;;11.73;7.65;;;15.10;99.90;;;;;;5126251;27;20457;-67
2021/08/10 05:18:04;;;;;;;9.88;7.60;;;15.20;99.90;;;;;;5094607;28;20044;-67
2021/08/10 05:20:30;;;;;;;10.85;7.30;;;15.20;99.90;;;;;;5094810;28;20093;-67
2021/08/10 05:22:55;;;;;;;11.63;7.60;;;15.20;99.90;;;;;;5096420;28;20052;-67
2021/08/10 05:25:21;;;;;;;12.57;8.43;;;15.20;99.90;;;;;;5092727;28;20051;-68
2021/08/10 05:27:47;;;;;;;9.48;7.50;;;15.20;99.90;;;;;;5096708;28;20040;-68
2021/08/10 05:30:13;;;;;;;12.18;7.07;;;15.20;99.90;;;;;;5090680;27;20047;-68
2021/08/10 05:32:39;;;;;;;11.52;7.57;;;15.20;99.90;;;;;;5094853;28;20569;-68
2021/08/10 05:35:05;;;;;;;9.15;7.57;;;15.20;99.90;;;;;;5091790;28;20052;-68
2021/08/10 05:37:31;;;;;;;10.70;8.30;;;15.20;99.90;;;;;;5094809;28;20082;-67
2021/08/10 05:39:57;;;;;;;14.07;8.30;;;15.20;99.90;;;;;;5099384;28;20454;-68
2021/08/10 05:42:22;;;;;;;12.65;7.75;;;15.20;99.90;;;;;;5094592;28;20055;-68
2021/08/10 05:44:48;;;;;;;11.70;8.95;;;15.20;99.90;;;;;;5094034;28;20032;-67
2021/08/10 05:47:14;;;;;;;11.13;7.43;;;15.30;99.90;;;;;;5092870;28;20043;-68
2021/08/10 05:49:39;;;;;;;10.15;8.32;;;15.30;99.90;;;;;;5095619;28;20067;-68
2021/08/10 05:52:05;;;;;;;11.88;7.40;;;15.30;99.90;;;;;;5097148;28;20040;-68
2021/08/10 05:54:31;;;;;;;19.17;8.70;;;15.40;99.90;;;;;;5090462;28;20039;-68
2021/08/10 05:56:57;;;;;;;10.93;7.75;;;15.40;99.90;;;;;;5099044;28;20040;-68
2021/08/10 05:59:23;;;;;;;9.07;6.55;;;15.50;99.90;;;;;;5092913;28;20805;-68
2021/08/10 06:01:48;;;;;;;13.00;8.35;;;15.60;99.90;;;;;;5094837;28;20044;-68
2021/08/10 06:04:14;;;;;;;12.73;7.95;;;15.60;99.90;;;;;;5095147;28;20114;-68
2021/08/10 06:06:40;;;;;;;8.55;5.35;;;16.00;99.90;;;;;;5093311;28;20039;-68
2021/08/10 06:09:06;;;;;;;8.57;4.72;;;17.10;99.90;;;;;;5098688;28;20051;-69
2021/08/10 06:11:33;;;;;;;6.70;4.35;;;18.20;99.90;;;;;;5093557;28;20043;-69
2021/08/10 06:13:59;;;;;;;7.03;4.95;;;18.60;99.90;;;;;;5093520;28;20040;-67
2021/08/10 06:16:25;;;;;;;6.28;4.68;;;18.60;99.90;;;;;;5094788;28;20118;-67
2021/08/10 06:18:51;;;;;;;8.90;5.25;;;18.40;99.90;;;;;;5095847;28;20089;-67
2021/08/10 06:21:17;;;;;;;6.45;5.03;;;18.10;99.90;;;;;;5093518;28;20047;-67
2021/08/10 06:23:43;;;;;;;6.97;5.47;;;17.90;99.90;;;;;;5089923;28;21717;-67
2021/08/10 06:26:09;;;;;;;9.02;5.65;;;17.70;99.90;;;;;;5099820;28;20040;-67
2021/08/10 06:28:35;;;;;;;8.45;4.88;;;17.50;99.90;;;;;;5095389;28;20040;-67
2021/08/10 06:31:02;;;;;;;5.75;4.75;;;17.40;99.90;;;;;;5095239;28;20036;-67
2021/08/10 06:33:28;;;;;;;6.57;5.00;;;17.30;99.90;;;;;;5093661;28;20039;-67
2021/08/10 06:35:54;;;;;;;6.75;4.18;;;17.10;99.90;;;;;;5092559;28;20048;-67
2021/08/10 06:38:20;;;;;;;6.63;4.50;;;17.00;99.90;;;;;;5092924;28;20036;-67
2021/08/10 06:40:46;;;;;;;6.97;4.32;;;17.00;99.90;;;;;;5094143;28;20142;-67
2021/08/10 06:43:11;;;;;;;4.93;4.20;;;17.10;99.90;;;;;;5094217;28;20055;-67
2021/08/10 06:45:38;;;;;;;8.68;4.05;;;17.00;99.90;;;;;;5093682;28;20035;-67
2021/08/10 06:48:04;;;;;;;6.30;4.10;;;16.90;99.90;;;;;;5099971;27;20537;-67
2021/08/10 06:50:30;;;;;;;6.00;3.63;;;16.90;99.90;;;;;;5099800;27;20071;-67
2021/08/10 06:52:56;;;;;;;6.10;4.22;;;16.80;99.90;;;;;;5128115;27;20071;-67
2021/08/10 06:55:21;;;;;;;7.32;3.67;;;16.80;99.90;;;;;;5094083;28;20063;-67
2021/08/10 06:57:48;;;;;;;7.32;4.18;;;16.80;99.90;;;;;;5098620;28;20055;-67
2021/08/10 07:00:14;;;;;;;5.20;4.38;;;16.70;99.90;;;;;;5098763;28;20048;-67
2021/08/10 07:02:39;;;;;;;4.90;4.43;;;16.70;99.90;;;;;;5093965;28;20486;-67
2021/08/10 07:05:05;;;;;;;5.15;3.78;;;16.70;99.90;;;;;;5098605;28;20115;-67
2021/08/10 07:07:31;;;;;;;5.28;3.67;;;16.60;99.90;;;;;;5097243;28;20074;-67
2021/08/10 07:09:57;;;;;;;8.43;4.82;;;16.70;99.90;;;;;;5098437;28;20124;-67
2021/08/10 07:12:23;;;;;;;7.45;4.53;;;16.70;99.90;;;;;;5102474;28;20027;-67
2021/08/10 07:14:49;;;;;;;10.48;5.50;;;16.70;99.90;;;;;;5097894;27;20038;-67
2021/08/10 07:17:14;;;;;;;6.28;4.60;;;16.70;99.90;;;;;;5097266;27;20494;-67
2021/08/10 07:19:40;;;;;;;6.45;5.50;;;16.70;99.90;;;;;;5097803;27;20379;-67
2021/08/10 07:22:06;;;;;;;6.13;4.53;;;16.80;99.90;;;;;;5095643;28;20132;-67
2021/08/10 07:24:32;;;;;;;9.55;5.32;;;16.80;99.90;;;;;;5096416;27;20036;-67
2021/08/10 07:26:58;;;;;;;13.30;5.38;;;16.90;99.90;;;;;;5096423;28;20034;-67
2021/08/10 07:29:23;;;;;;;12.02;5.55;;;17.00;99.90;;;;;;5096243;28;20036;-67
2021/08/10 07:31:49;;;;;;;7.75;6.25;;;17.00;99.90;;;;;;5098020;27;20536;-67
2021/08/10 07:34:15;;;;;;;18.15;7.30;;;17.00;99.90;;;;;;5096619;28;20537;-68
2021/08/10 07:36:40;;;;;;;8.82;6.45;;;17.00;99.90;;;;;;5096199;28;20094;-68
2021/08/10 07:39:06;;;;;;;9.82;6.53;;;17.00;99.90;;;;;;5096347;28;20051;-67
2021/08/10 07:41:32;;;;;;;10.32;7.63;;;17.00;99.90;;;;;;5095581;28;20035;-68
2021/08/10 07:43:58;;;;;;;9.10;6.88;;;17.10;99.90;;;;;;5096517;28;20036;-68
2021/08/10 07:46:24;;;;;;;13.70;8.48;;;17.10;99.90;;;;;;5094672;28;20040;-68
2021/08/10 07:48:50;;;;;;;13.55;10.07;;;17.20;99.90;;;;;;5095544;28;20039;-68
2021/08/10 07:51:18;;;;;;;14.65;9.90;;;17.20;99.90;;;;;;5095392;28;20036;-67
2021/08/10 07:53:44;;;;;;;19.33;10.90;;;17.30;99.90;;;;;;5100340;27;20477;-68
2021/08/10 07:56:13;;;;;;;17.48;10.23;;;17.60;99.90;;;;;;5097604;28;20085;-68
2021/08/10 07:58:40;;;;;;;15.20;10.15;;;17.70;99.90;;;;;;5097024;28;20035;-68
2021/08/10 08:01:06;;;;;;;15.75;10.48;;;17.80;99.90;;;;;;5095718;27;20120;-68
2021/08/10 08:03:32;;;;;;;12.85;9.45;;;17.80;99.90;;;;;;5093667;28;20127;-68
2021/08/10 08:05:58;;;;;;;11.70;9.45;;;17.80;99.90;;;;;;5095445;28;20040;-67
2021/08/10 08:08:25;;;;;;;13.95;9.65;;;17.80;99.90;;;;;;5095596;28;20787;-67
2021/08/10 08:10:55;;;;;;;11.88;9.77;;;17.80;99.90;;;;;;5096329;28;20048;-68
2021/08/10 08:13:21;;;;;;;13.48;10.23;;;17.80;99.90;;;;;;5095808;28;20406;-68
2021/08/10 08:15:47;;;;;;;17.55;10.10;;;17.90;99.90;;;;;;5095741;28;20032;-68
2021/08/10 08:18:13;;;;;;;15.02;9.82;;;17.90;99.90;;;;;;5099193;27;20035;-68
2021/08/10 08:20:39;;;;;;;17.25;9.98;;;17.90;99.90;;;;;;5096785;28;20610;-68
2021/08/10 08:23:05;;;;;;;13.15;9.77;;;18.00;99.90;;;;;;5097102;27;20036;-68
2021/08/10 08:25:30;;;;;;;18.27;10.10;;;18.10;99.90;;;;;;5095404;27;20078;-68
2021/08/10 08:27:56;;;;;;;15.15;8.52;;;18.10;99.90;;;;;;5093432;28;20028;-68
2021/08/10 08:30:22;;;;;;;16.95;8.50;;;18.10;99.90;;;;;;5095665;27;20618;-68
2021/08/10 08:32:48;;;;;;;12.52;8.93;;;18.10;99.90;;;;;;5098541;28;20069;-67
2021/08/10 08:35:13;;;;;;;13.63;8.27;;;18.20;99.90;;;;;;5095132;27;20043;-68
2021/08/10 08:37:39;;;;;;;15.60;8.93;;;18.20;99.90;;;;;;5093855;27;20028;-68
2021/08/10 08:40:06;;;;;;;14.40;8.25;;;18.30;99.90;;;;;;5097258;27;20040;-68
2021/08/10 08:42:33;;;;;;;12.32;7.25;;;18.30;99.90;;;;;;5093079;28;20169;-68
2021/08/10 08:44:59;;;;;;;17.45;8.32;;;18.40;99.90;;;;;;5095628;28;20035;-68
2021/08/10 08:47:26;;;;;;;11.00;6.28;;;18.50;99.90;;;;;;5097637;28;20082;-68
2021/08/10 08:49:55;;;;;;;11.40;5.90;;;18.60;99.90;;;;;;5100413;27;20066;-68
2021/08/10 08:52:22;;;;;;;15.23;6.97;;;18.60;99.90;;;;;;5099373;28;20036;-68
2021/08/10 08:54:48;;;;;;;10.93;6.13;;;18.70;99.90;;;;;;5101689;28;20118;-68
2021/08/10 08:57:13;;;;;;;11.57;6.53;;;18.80;99.90;;;;;;5100382;28;20036;-68
2021/08/10 08:59:42;;;;;;;10.35;6.47;;;18.90;99.90;;;;;;5103163;27;20051;-68
2021/08/10 09:02:16;;;;;;;10.93;6.18;;;19.20;99.90;;;;;;5102066;27;20488;-68
2021/08/10 09:04:43;;;;;;;8.40;5.03;;;19.30;99.90;;;;;;5104071;28;20105;-68
2021/08/10 09:07:08;;;;;;;8.43;4.95;;;19.20;99.90;;;;;;5105260;28;20376;-68
2021/08/10 09:09:34;;;;;;;11.05;5.55;;;19.20;99.90;;;;;;5098780;28;20115;-68
2021/08/10 09:12:08;;;;;;;10.40;6.13;;;19.10;99.90;;;;;;5106509;28;20489;-68
2021/08/10 09:14:48;;;;;;;13.20;6.47;;;19.00;99.90;;;;;;5100676;28;20735;-68
2021/08/10 09:17:18;;;;;;;12.48;6.60;;;18.90;99.90;;;;;;5107935;28;20062;-67
2021/08/10 09:19:47;;;;;;;18.95;7.82;;;18.70;99.90;;;;;;5097484;28;20036;-67
2021/08/10 09:22:28;;;;;;;12.70;6.80;;;18.60;99.90;;;;;;5102229;28;20043;-67
2021/08/10 09:25:00;;;;;;;10.45;4.70;;;18.40;99.90;;;;;;5099654;28;20034;-67
2021/08/10 09:27:27;;;;;;;7.72;4.55;;;18.30;99.90;;;;;;5104668;28;20597;-67
2021/08/10 09:29:54;;;;;;;13.57;4.35;;;18.20;99.90;;;;;;5106666;28;20075;-67
2021/08/10 09:32:21;;;;;;;15.15;5.20;;;18.00;99.90;;;;;;5100085;28;20471;-67
2021/08/10 09:35:09;;;;;;;10.30;4.95;;;17.80;99.90;;;;;;5103954;28;20121;-67
2021/08/10 09:37:36;;;;;;;20.73;5.00;;;17.60;99.90;;;;;;5102701;28;20046;-67
2021/08/10 09:40:27;;;;;;;9.38;4.18;;;17.50;99.90;;;;;;5102220;28;20036;-67
2021/08/10 09:42:52;;;;;;;7.57;3.83;;;17.40;99.90;;;;;;5103486;28;20039;-67
2021/08/10 09:45:18;;;;;;;7.53;3.95;;;17.20;99.90;;;;;;5100061;28;20039;-67
2021/08/10 09:47:44;;;;;;;8.50;3.70;;;17.10;99.90;;;;;;5105528;28;20041;-67
2021/08/10 09:50:25;;;;;;;11.55;4.35;;;17.10;99.90;;;;;;5102705;28;20119;-67
2021/08/10 09:52:51;;;;;;;6.35;3.83;;;17.20;99.90;;;;;;5102409;28;20080;-67
2021/08/10 09:55:18;;;;;;;6.32;4.03;;;17.30;99.90;;;;;;5098338;28;20032;-67
2021/08/10 09:57:59;;;;;;;8.50;3.75;;;17.40;99.90;;;;;;5100278;28;20046;-67
2021/08/10 10:00:39;;;;;;;8.43;4.53;;;17.50;99.90;;;;;;5103341;28;20044;-67
2021/08/10 10:03:34;;;;;;;6.38;4.03;;;17.50;99.90;;;;;;5130349;27;20039;-67
2021/08/10 10:06:00;;;;;;;7.68;4.28;;;17.60;99.90;;;;;;5090762;28;20401;-67
2021/08/10 10:08:26;;;;;;;11.23;4.30;;;17.70;99.90;;;;;;5096757;28;20119;-67
2021/08/10 10:10:54;;;;;;;6.68;3.70;;;18.00;99.90;;;;;;5103600;28;20066;-67
2021/08/10 10:13:21;;;;;;;8.13;4.55;;;18.30;99.90;;;;;;5100468;28;20040;-67
2021/08/10 10:15:48;;;;;;;10.48;4.72;;;18.80;99.90;;;;;;5106620;28;20127;-67
2021/08/10 10:18:14;;;;;;;11.05;5.07;;;19.00;99.90;;;;;;5100210;28;20040;-67
2021/08/10 10:20:47;;;;;;;16.38;6.55;;;19.10;99.90;;;;;;5099826;28;20366;-67
2021/08/10 10:23:22;;;;;;;13.23;6.60;;;19.10;99.90;;;;;;5103308;28;20506;-67
2021/08/10 10:25:49;;;;;;;18.65;7.90;;;19.00;99.90;;;;;;5102742;28;20086;-68
2021/08/10 10:28:15;;;;;;;10.90;4.75;;;19.00;99.90;;;;;;5107332;28;20044;-67
2021/08/10 10:30:44;;;;;;;7.68;4.18;;;18.70;99.90;;;;;;5107720;28;20040;-68
2021/08/10 10:33:12;;;;;;;10.32;4.72;;;18.50;99.90;;;;;;5108081;28;20111;-67
2021/08/10 10:35:40;;;;;;;8.45;4.07;;;18.40;99.90;;;;;;5105086;28;20046;-67
2021/08/10 10:38:06;;;;;;;9.15;5.00;;;18.40;99.90;;;;;;5105337;28;20047;-67
2021/08/10 10:40:33;;;;;;;10.25;4.55;;;18.30;99.90;;;;;;5105561;27;20043;-67
2021/08/10 10:42:59;;;;;;;10.75;4.30;;;18.30;99.90;;;;;;5107402;27;20046;-67
2021/08/10 10:45:39;;;;;;;9.52;4.45;;;18.20;99.90;;;;;;5104121;27;20032;-67
2021/08/10 10:48:25;;;;;;;13.63;4.95;;;18.30;99.90;;;;;;5108624;27;20474;-67
2021/08/10 10:51:11;;;;;;;9.23;4.65;;;18.30;99.90;;;;;;5106025;27;20047;-67
2021/08/10 10:53:37;;;;;;;8.88;4.65;;;18.30;99.90;;;;;;5106738;28;20039;-67
2021/08/10 10:56:04;;;;;;;6.95;4.72;;;18.30;99.90;;;;;;5101557;27;20423;-67
2021/08/10 10:58:34;;;;;;;12.38;5.65;;;18.20;99.90;;;;;;5106002;28;20085;-67
2021/08/10 11:01:09;;;;;;;9.60;5.63;;;18.20;99.90;;;;;;5106042;27;20073;-67
2021/08/10 11:03:35;;;;;;;10.32;6.03;;;18.30;99.90;;;;;;5106088;28;20109;-67
2021/08/10 11:06:32;;;;;;;12.52;6.22;;;18.20;99.90;;;;;;5105345;27;20474;-67
2021/08/10 11:08:59;;;;;;;12.02;5.50;;;18.20;99.90;;;;;;5105391;27;20516;-67
2021/08/10 11:11:51;;;;;;;14.07;7.40;;;18.20;99.90;;;;;;5105635;27;20051;-67
2021/08/10 11:14:35;;;;;;;10.13;5.88;;;18.20;99.90;;;;;;5105154;28;20035;-67
2021/08/10 11:17:13;;;;;;;10.45;6.40;;;18.20;99.90;;;;;;5104394;28;20405;-67
2021/08/10 11:19:43;;;;;;;11.20;6.32;;;18.30;99.90;;;;;;5098161;28;20040;-67
2021/08/10 11:22:15;;;;;;;13.75;7.20;;;18.30;99.90;;;;;;5098645;28;20059;-67
2021/08/10 11:25:02;;;;;;;13.73;6.85;;;18.40;99.90;;;;;;5105291;28;20440;-67
2021/08/10 11:27:28;;;;;;;11.63;5.78;;;18.60;99.90;;;;;;5100177;28;20097;-67
2021/08/10 11:29:54;;;;;;;10.13;6.30;;;18.90;99.90;;;;;;5103188;28;20112;-69
2021/08/10 11:32:46;;;;;;;14.45;7.05;;;19.20;99.90;;;;;;5106242;28;20075;-68
2021/08/10 11:35:35;;;;;;;12.23;6.10;;;19.40;99.90;;;;;;5105096;28;20082;-69
2021/08/10 11:38:09;;;;;;;10.65;6.13;;;19.50;99.90;;;;;;5101328;28;20032;-70
2021/08/10 11:40:52;;;;;;;12.82;6.43;;;19.70;99.90;;;;;;5102623;28;20046;-70
2021/08/10 11:43:20;;;;;;;13.13;6.35;;;20.00;99.90;;;;;;5105707;28;20032;-70
2021/08/10 11:45:47;;;;;;;13.07;7.57;;;20.30;99.90;;;;;;5109938;28;20042;-70
2021/08/10 11:48:13;;;;;;;10.80;6.32;;;20.80;99.90;;;;;;5108686;28;20035;-69
2021/08/10 11:50:39;;;;;;;6.35;5.18;;;21.10;99.90;;;;;;5105939;27;20221;-70
2021/08/10 11:53:05;;;;;;;9.88;5.10;;;21.30;99.90;;;;;;5104420;28;20469;-70
2021/08/10 11:55:33;;;;;;;6.85;5.53;;;21.30;99.90;;;;;;5098779;28;20039;-70
2021/08/10 11:58:02;;;;;;;13.52;5.68;;;21.20;99.90;;;;;;5102296;28;20036;-70
2021/08/10 12:00:29;;;;;;;10.10;5.15;;;21.00;99.90;;;;;;5106627;28;20059;-70
2021/08/10 12:02:56;;;;;;;8.88;4.68;;;20.90;99.90;;;;;;5104951;28;20097;-70
2021/08/10 12:05:23;;;;;;;5.65;3.05;;;20.80;99.90;;;;;;5101571;28;20040;-70
2021/08/10 12:07:57;;;;;;;4.50;2.78;;;20.80;99.90;;;;;;5101554;28;20106;-71
2021/08/10 12:10:27;;;;;;;4.22;2.15;;;20.90;99.90;;;;;;5100817;28;20509;-70
2021/08/10 12:12:53;;;;;;;2.50;1.35;;;21.10;99.90;;;;;;5101903;28;20068;-70
2021/08/10 12:15:42;;;;;;;2.65;1.35;;;21.20;99.90;;;;;;5102751;28;20111;-70
2021/08/10 12:18:08;;;;;;;2.92;1.63;;;21.30;99.90;;;;;;5103989;28;20040;-69
2021/08/10 12:20:35;;;;;;;2.85;1.40;;;21.40;99.90;;;;;;5102704;27;20040;-70
2021/08/10 12:23:03;;;;;;;3.28;1.85;;;21.60;99.90;;;;;;5104743;28;20035;-70
2021/08/10 12:25:29;;;;;;;4.28;1.75;;;21.70;99.90;;;;;;5102746;28;20508;-70
2021/08/10 12:28:02;;;;;;;4.22;1.77;;;21.80;99.90;;;;;;5101621;28;20038;-69
2021/08/10 12:30:30;;;;;;;13.13;2.80;;;21.50;99.90;;;;;;5104582;27;20047;-70
2021/08/10 12:33:13;;;;;;;2.40;1.73;;;21.30;99.90;;;;;;5105997;28;20398;-70
2021/08/10 12:35:40;;;;;;;6.18;1.80;;;21.00;99.90;;;;;;5102338;28;20047;-70
2021/08/10 12:38:06;;;;;;;3.47;2.10;;;20.70;99.90;;;;;;5101758;28;20040;-70
2021/08/10 12:40:32;;;;;;;3.10;1.95;;;20.50;99.90;;;;;;5105509;28;20504;-70
2021/08/10 12:42:58;;;;;;;5.82;2.88;;;20.40;99.90;;;;;;5099750;28;20044;-70
2021/08/10 12:45:33;;;;;;;2.40;1.70;;;20.20;99.90;;;;;;5106061;28;20042;-70
2021/08/10 12:47:58;;;;;;;2.22;1.80;;;20.10;99.90;;;;;;5103265;28;20323;-70